createdAt,value
2023-03-19T00:00:21.432Z,101259.53
2023-03-19T00:02:23.768Z,101259.59
2023-03-19T00:04:27.503Z,101257.88
2023-03-19T00:06:28.928Z,101258.81
2023-03-19T00:08:30.436Z,101263.25
2023-03-19T00:10:32.005Z,101265.94
2023-03-19T00:12:36.677Z,101261.59
2023-03-19T00:14:38.634Z,101258.09
2023-03-19T00:16:40.317Z,101260.75
2023-03-19T00:18:41.892Z,101261.66
2023-03-19T00:20:45.844Z,101259.06
2023-03-19T00:22:47.623Z,101261.75
2023-03-19T00:24:49.224Z,101257.41
2023-03-19T00:26:51.327Z,101253.06
2023-03-19T00:28:54.388Z,101255.72
2023-03-19T00:30:56.427Z,101262.75
2023-03-19T00:32:57.988Z,101267.19
2023-03-19T00:34:59.524Z,101260.22
2023-03-19T00:37:01.324Z,101269.00
2023-03-19T00:39:05.724Z,101276.94
2023-03-19T00:41:07.638Z,101274.34
2023-03-19T00:43:09.524Z,101272.56
2023-03-19T00:45:12.909Z,101270.84
2023-03-19T00:47:14.766Z,101264.75
2023-03-19T00:49:16.236Z,101264.78
2023-03-19T00:51:17.792Z,101259.56
2023-03-19T00:53:21.811Z,101271.00
2023-03-19T00:55:24.411Z,101273.66
2023-03-19T00:57:27.088Z,101264.06
2023-03-19T00:59:29.098Z,101270.22
2023-03-19T01:01:30.681Z,101266.75
2023-03-19T01:03:33.399Z,101272.91
2023-03-19T01:05:36.200Z,101268.53
2023-03-19T01:07:40.306Z,101270.31
2023-03-19T01:09:41.897Z,101274.72
2023-03-19T01:11:43.357Z,101263.34
2023-03-19T01:13:45.709Z,101269.50
2023-03-19T01:15:47.168Z,101271.28
2023-03-19T01:17:48.612Z,101266.94
2023-03-19T01:19:50.077Z,101265.19
2023-03-19T01:21:51.625Z,101259.09
2023-03-19T01:23:53.272Z,101260.81
2023-03-19T01:25:54.794Z,101254.72
2023-03-19T01:27:56.364Z,101264.34
2023-03-19T01:29:57.808Z,101266.13
2023-03-19T01:31:59.277Z,101267.91
2023-03-19T01:34:01.734Z,101263.53
2023-03-19T01:36:04.867Z,101268.78
2023-03-19T01:38:06.394Z,101260.88
2023-03-19T01:40:13.189Z,101259.09
2023-03-19T01:42:15.002Z,101261.72
2023-03-19T01:44:27.709Z,101266.09
2023-03-19T01:46:29.176Z,101262.59
2023-03-19T01:48:43.595Z,101259.06
2023-03-19T01:50:46.178Z,101268.69
2023-03-19T01:52:47.740Z,101266.94
2023-03-19T01:54:49.402Z,101265.16
2023-03-19T01:57:00.258Z,101266.91
2023-03-19T01:59:11.036Z,101267.78
2023-03-19T02:01:14.210Z,101263.44
2023-03-19T02:03:16.373Z,101266.06
2023-03-19T02:05:25.560Z,101264.31
2023-03-19T02:07:30.906Z,101259.94
2023-03-19T02:09:32.746Z,101258.19
2023-03-19T02:11:34.250Z,101257.28
2023-03-19T02:13:36.591Z,101247.66
2023-03-19T02:15:38.358Z,101249.44
2023-03-19T02:17:41.630Z,101255.56
2023-03-19T02:20:01.947Z,101252.06
2023-03-19T02:22:05.019Z,101256.47
2023-03-19T02:24:17.378Z,101252.94
2023-03-19T02:26:21.668Z,101254.69
2023-03-19T02:28:24.279Z,101256.44
2023-03-19T02:30:27.930Z,101249.41
2023-03-19T02:32:29.392Z,101252.88
2023-03-19T02:34:34.969Z,101252.00
2023-03-19T02:36:44.488Z,101249.34
2023-03-19T02:38:46.830Z,101254.63
2023-03-19T02:40:54.092Z,101244.09
2023-03-19T02:42:55.543Z,101257.22
2023-03-19T02:44:57.820Z,101261.63
2023-03-19T02:46:59.673Z,101262.50
2023-03-19T02:49:01.614Z,101257.22
2023-03-19T02:51:03.894Z,101251.09
2023-03-19T02:53:05.653Z,101258.09
2023-03-19T02:55:07.963Z,101244.06
2023-03-19T02:57:09.485Z,101251.06
2023-03-19T02:59:10.966Z,101248.44
2023-03-19T03:01:12.498Z,101252.81
2023-03-19T03:03:14.152Z,101251.06
2023-03-19T03:05:15.590Z,101249.31
2023-03-19T03:07:17.285Z,101258.09
2023-03-19T03:09:19.630Z,101258.09
2023-03-19T03:11:21.077Z,101258.97
2023-03-19T03:13:22.618Z,101267.75
2023-03-19T03:15:24.470Z,101271.25
2023-03-19T03:17:25.949Z,101267.75
2023-03-19T03:19:27.766Z,101266.88
2023-03-19T03:21:29.592Z,101268.63
2023-03-19T03:23:31.117Z,101269.50
2023-03-19T03:25:32.620Z,101266.84
2023-03-19T03:27:34.116Z,101265.09
2023-03-19T03:29:35.587Z,101267.72
2023-03-19T03:31:37.352Z,101265.09
2023-03-19T03:33:39.180Z,101273.84
2023-03-19T03:35:40.719Z,101267.72
2023-03-19T03:37:42.288Z,101275.59
2023-03-19T03:39:43.813Z,101274.72
2023-03-19T03:41:45.800Z,101269.47
2023-03-19T03:43:47.816Z,101279.09
2023-03-19T03:45:49.800Z,101278.22
2023-03-19T03:47:51.342Z,101280.00
2023-03-19T03:49:52.853Z,101287.88
2023-03-19T03:51:54.341Z,101275.59
2023-03-19T03:53:55.823Z,101277.34
2023-03-19T03:55:57.400Z,101273.84
2023-03-19T03:57:59.130Z,101275.59
2023-03-19T04:00:00.712Z,101273.84
2023-03-19T04:02:02.325Z,101265.06
2023-03-19T04:04:03.849Z,101262.44
2023-03-19T04:06:06.075Z,101268.56
2023-03-19T04:08:08.671Z,101272.06
2023-03-19T04:10:11.922Z,101263.28
2023-03-19T04:12:14.061Z,101268.56
2023-03-19T04:14:15.552Z,101271.19
2023-03-19T04:16:17.068Z,101270.28
2023-03-19T04:18:18.604Z,101272.03
2023-03-19T04:20:20.144Z,101267.66
2023-03-19T04:22:21.611Z,101266.78
2023-03-19T04:24:23.254Z,101265.88
2023-03-19T04:26:24.729Z,101272.88
2023-03-19T04:28:26.447Z,101273.75
2023-03-19T04:30:28.164Z,101272.88
2023-03-19T04:32:29.704Z,101271.97
2023-03-19T04:34:31.846Z,101276.34
2023-03-19T04:36:33.320Z,101272.84
2023-03-19T04:38:34.806Z,101278.09
2023-03-19T04:40:36.618Z,101271.94
2023-03-19T04:42:38.137Z,101275.44
2023-03-19T04:44:39.612Z,101271.06
2023-03-19T04:46:41.877Z,101279.81
2023-03-19T04:48:43.448Z,101280.66
2023-03-19T04:50:47.107Z,101281.53
2023-03-19T04:52:49.672Z,101288.53
2023-03-19T04:54:51.136Z,101291.16
2023-03-19T04:56:53.238Z,101284.13
2023-03-19T04:58:54.779Z,101285.91
2023-03-19T05:00:56.257Z,101297.28
2023-03-19T05:02:57.999Z,101293.75
2023-03-19T05:04:59.448Z,101302.50
2023-03-19T05:07:00.982Z,101300.75
2023-03-19T05:09:03.887Z,101306.00
2023-03-19T05:11:05.535Z,101304.25
2023-03-19T05:13:07.245Z,101303.34
2023-03-19T05:15:09.502Z,101301.59
2023-03-19T05:17:11.348Z,101298.97
2023-03-19T05:19:13.044Z,101301.59
2023-03-19T05:21:14.880Z,101298.09
2023-03-19T05:23:17.855Z,101306.84
2023-03-19T05:25:19.532Z,101297.22
2023-03-19T05:27:21.117Z,101297.22
2023-03-19T05:29:23.289Z,101299.84
2023-03-19T05:31:24.918Z,101301.59
2023-03-19T05:33:26.844Z,101299.00
2023-03-19T05:35:29.783Z,101297.28
2023-03-19T05:37:31.844Z,101297.31
2023-03-19T05:39:33.528Z,101303.44
2023-03-19T05:41:35.064Z,101297.34
2023-03-19T05:43:37.137Z,101306.13
2023-03-19T05:45:38.990Z,101302.63
2023-03-19T05:47:40.576Z,101305.25
2023-03-19T05:49:42.020Z,101296.50
2023-03-19T05:51:43.508Z,101301.78
2023-03-19T05:53:46.012Z,101304.44
2023-03-19T05:55:47.465Z,101306.19
2023-03-19T05:57:49.029Z,101306.22
2023-03-19T05:59:51.091Z,101310.63
2023-03-19T06:01:52.622Z,101308.88
2023-03-19T06:03:54.163Z,101311.53
2023-03-19T06:05:55.830Z,101312.41
2023-03-19T06:07:57.284Z,101312.41
2023-03-19T06:09:58.733Z,101313.25
2023-03-19T06:12:00.439Z,101315.00
2023-03-19T06:14:01.915Z,101313.22
2023-03-19T06:16:03.573Z,101319.31
2023-03-19T06:18:05.235Z,101312.25
2023-03-19T06:20:07.185Z,101313.09
2023-03-19T06:22:08.991Z,101316.53
2023-03-19T06:24:10.542Z,101312.09
2023-03-19T06:26:12.387Z,101319.94
2023-03-19T06:28:13.995Z,101318.16
2023-03-19T06:30:15.774Z,101324.25
2023-03-19T06:32:17.297Z,101337.38
2023-03-19T06:34:18.993Z,101322.38
2023-03-19T06:36:20.515Z,101334.63
2023-03-19T06:38:22.483Z,101327.50
2023-03-19T06:40:24.495Z,101327.41
2023-03-19T06:42:26.118Z,101335.28
2023-03-19T06:44:27.691Z,101330.00
2023-03-19T06:46:29.303Z,101330.81
2023-03-19T06:48:31.184Z,101336.91
2023-03-19T06:50:32.918Z,101329.81
2023-03-19T06:52:34.517Z,101333.25
2023-03-19T06:54:38.358Z,101335.84
2023-03-19T06:56:40.628Z,101335.78
2023-03-19T06:58:42.156Z,101341.00
2023-03-19T07:00:44.128Z,101343.59
2023-03-19T07:02:45.641Z,101346.19
2023-03-19T07:04:47.118Z,101340.00
2023-03-19T07:06:48.642Z,101349.66
2023-03-19T07:08:50.131Z,101356.66
2023-03-19T07:10:51.668Z,101356.59
2023-03-19T07:12:53.216Z,101351.28
2023-03-19T07:14:58.497Z,101363.50
2023-03-19T07:16:59.970Z,101359.09
2023-03-19T07:19:01.441Z,101365.19
2023-03-19T07:21:03.454Z,101363.41
2023-03-19T07:23:04.906Z,101364.25
2023-03-19T07:25:07.267Z,101364.25
2023-03-19T07:27:08.829Z,101369.50
2023-03-19T07:29:11.175Z,101368.56
2023-03-19T07:31:13.612Z,101377.31
2023-03-19T07:33:15.080Z,101372.88
2023-03-19T07:35:16.868Z,101374.56
2023-03-19T07:37:20.171Z,101375.38
2023-03-19T07:39:23.416Z,101372.72
2023-03-19T07:41:24.873Z,101380.53
2023-03-19T07:43:26.458Z,101376.91
2023-03-19T07:45:27.937Z,101377.63
2023-03-19T07:47:29.836Z,101381.00
2023-03-19T07:49:31.491Z,101380.88
2023-03-19T07:51:33.468Z,101385.13
2023-03-19T07:53:34.948Z,101386.75
2023-03-19T07:55:38.431Z,101391.94
2023-03-19T07:57:40.426Z,101391.81
2023-03-19T07:59:42.201Z,101397.91
2023-03-19T08:01:43.859Z,101393.44
2023-03-19T08:03:45.391Z,101394.25
2023-03-19T08:05:50.441Z,101398.59
2023-03-19T08:07:52.358Z,101395.84
2023-03-19T08:09:53.900Z,101399.22
2023-03-19T08:11:55.806Z,101387.63
2023-03-19T08:13:57.286Z,101390.97
2023-03-19T08:15:58.801Z,101389.94
2023-03-19T08:18:01.755Z,101397.69
2023-03-19T08:20:04.339Z,101392.31
2023-03-19T08:22:05.966Z,101391.34
2023-03-19T08:24:07.434Z,101403.53
2023-03-19T08:26:08.915Z,101401.56
2023-03-19T08:28:10.536Z,101398.75
2023-03-19T08:30:12.653Z,101395.16
2023-03-19T08:32:14.226Z,101393.34
2023-03-19T08:34:15.740Z,101397.63
2023-03-19T08:36:17.301Z,101396.66
2023-03-19T08:38:20.003Z,101395.66
2023-03-19T08:40:22.122Z,101397.28
2023-03-19T08:42:23.867Z,101395.38
2023-03-19T08:44:25.362Z,101404.06
2023-03-19T08:46:27.768Z,101398.66
2023-03-19T08:48:29.485Z,101403.91
2023-03-19T08:50:30.991Z,101402.97
2023-03-19T08:52:32.938Z,101402.06
2023-03-19T08:54:34.630Z,101409.09
2023-03-19T08:56:36.066Z,101405.47
2023-03-19T08:58:37.640Z,101407.94
2023-03-19T09:00:39.086Z,101401.63
2023-03-19T09:02:40.764Z,101408.50
2023-03-19T09:04:43.325Z,101408.25
2023-03-19T09:06:45.224Z,101418.63
2023-03-19T09:08:46.784Z,101411.31
2023-03-19T09:10:49.855Z,101416.25
2023-03-19T09:12:52.862Z,101418.50
2023-03-19T09:14:54.316Z,101412.91
2023-03-19T09:16:55.854Z,101413.47
2023-03-19T09:18:59.329Z,101414.84
2023-03-19T09:21:01.663Z,101412.81
2023-03-19T09:23:03.492Z,101416.88
2023-03-19T09:25:05.434Z,101421.06
2023-03-19T09:27:06.906Z,101428.63
2023-03-19T09:29:09.086Z,101434.72
2023-03-19T09:31:11.572Z,101426.50
2023-03-19T09:33:13.281Z,101427.19
2023-03-19T09:35:14.907Z,101429.59
2023-03-19T09:37:16.560Z,101432.06
2023-03-19T09:39:18.067Z,101422.22
2023-03-19T09:41:32.473Z,101430.78
2023-03-19T09:44:00.642Z,101434.22
2023-03-19T09:46:06.531Z,101433.19
2023-03-19T09:48:16.921Z,101421.59
2023-03-19T09:50:21.313Z,101434.81
2023-03-19T09:52:47.130Z,101429.25
2023-03-19T09:54:52.815Z,101430.75
2023-03-19T09:56:55.477Z,101440.19
2023-03-19T09:58:57.004Z,101440.13
2023-03-19T10:01:00.972Z,101444.38
2023-03-19T10:03:34.838Z,101445.28
2023-03-19T10:05:53.353Z,101442.69
2023-03-19T10:07:57.801Z,101440.59
2023-03-19T10:10:08.327Z,101438.50
2023-03-19T10:12:09.773Z,101441.09
2023-03-19T10:14:36.126Z,101440.81
2023-03-19T10:16:41.167Z,101433.06
2023-03-19T10:18:48.373Z,101430.97
2023-03-19T10:20:56.737Z,101436.06
2023-03-19T10:23:37.517Z,101425.06
2023-03-19T10:25:41.627Z,101431.84
2023-03-19T10:27:46.624Z,101431.44
2023-03-19T10:29:48.439Z,101433.97
2023-03-19T10:32:18.655Z,101431.94
2023-03-19T10:34:29.502Z,101436.09
2023-03-19T10:36:35.701Z,101439.44
2023-03-19T10:38:44.712Z,101442.03
2023-03-19T10:41:01.877Z,101439.50
2023-03-19T10:43:24.744Z,101446.03
2023-03-19T10:45:31.902Z,101446.28
2023-03-19T10:47:39.487Z,101447.41
2023-03-19T10:49:42.066Z,101447.50
2023-03-19T10:51:46.258Z,101450.41
2023-03-19T10:53:47.876Z,101450.00
2023-03-19T10:56:00.216Z,101447.72
2023-03-19T10:58:05.751Z,101452.34
2023-03-19T11:00:15.510Z,101459.56
2023-03-19T11:02:20.719Z,101459.91
2023-03-19T11:04:23.537Z,101454.91
2023-03-19T11:06:35.449Z,101460.34
2023-03-19T11:08:38.027Z,101464.84
2023-03-19T11:10:46.584Z,101473.72
2023-03-19T11:12:54.694Z,101476.50
2023-03-19T11:14:59.980Z,101473.09
2023-03-19T11:17:36.719Z,101471.50
2023-03-19T11:19:42.646Z,101465.38
2023-03-19T11:21:59.002Z,101469.03
2023-03-19T11:24:03.527Z,101466.44
2023-03-19T11:26:05.173Z,101479.59
2023-03-19T11:28:15.648Z,101476.03
2023-03-19T11:30:19.561Z,101476.94
2023-03-19T11:32:33.692Z,101470.88
2023-03-19T11:34:54.093Z,101485.94
2023-03-19T11:37:01.790Z,101479.69
2023-03-19T11:39:12.340Z,101475.38
2023-03-19T11:41:24.798Z,101476.34
2023-03-19T11:43:48.950Z,101480.13
2023-03-19T11:45:59.494Z,101487.31
2023-03-19T11:48:31.569Z,101485.69
2023-03-19T11:50:50.022Z,101481.22
2023-03-19T11:53:14.633Z,101487.47
2023-03-19T11:55:39.202Z,101473.38
2023-03-19T11:58:18.636Z,101481.53
2023-03-19T12:00:31.359Z,101486.13
2023-03-19T12:03:00.517Z,101486.47
2023-03-19T12:05:21.085Z,101496.47
2023-03-19T12:07:32.811Z,101500.22
2023-03-19T12:10:25.424Z,101504.50
2023-03-19T12:12:39.484Z,101505.03
2023-03-19T12:14:59.433Z,101502.47
2023-03-19T12:17:07.259Z,101506.19
2023-03-19T12:19:36.590Z,101505.34
2023-03-19T12:22:22.415Z,101515.97
2023-03-19T12:24:48.719Z,101513.09
2023-03-19T12:27:36.511Z,101509.28
2023-03-19T12:29:59.662Z,101506.31
2023-03-19T12:32:16.641Z,101510.25
2023-03-19T12:34:27.139Z,101513.84
2023-03-19T12:36:33.900Z,101506.81
2023-03-19T12:38:45.326Z,101501.09
2023-03-19T12:40:49.375Z,101503.81
2023-03-19T12:42:51.945Z,101501.97
2023-03-19T12:44:57.078Z,101491.03
2023-03-19T12:47:09.694Z,101493.38
2023-03-19T12:49:17.756Z,101497.75
2023-03-19T12:51:23.079Z,101503.28
2023-03-19T12:53:54.241Z,101494.63
2023-03-19T12:56:01.188Z,101492.59
2023-03-19T12:58:14.664Z,101498.25
2023-03-19T13:00:25.246Z,101498.84
2023-03-19T13:02:59.034Z,101500.72
2023-03-19T13:05:14.711Z,101492.25
2023-03-19T13:07:36.134Z,101494.22
2023-03-19T13:10:00.746Z,101490.91
2023-03-19T13:12:10.694Z,101498.00
2023-03-19T13:14:26.752Z,101501.25
2023-03-19T13:16:45.350Z,101490.28
2023-03-19T13:18:58.115Z,101497.06
2023-03-19T13:21:32.407Z,101498.09
2023-03-19T13:23:38.410Z,101492.94
2023-03-19T13:25:48.171Z,101490.84
2023-03-19T13:27:54.644Z,101489.78
2023-03-19T13:30:12.189Z,101483.47
2023-03-19T13:32:35.839Z,101481.78
2023-03-19T13:34:38.344Z,101473.81
2023-03-19T13:36:40.890Z,101464.75
2023-03-19T13:38:50.628Z,101469.06
2023-03-19T13:40:53.172Z,101460.75
2023-03-19T13:42:57.619Z,101467.94
2023-03-19T13:45:38.233Z,101463.34
2023-03-19T13:47:43.294Z,101467.38
2023-03-19T13:50:08.785Z,101468.56
2023-03-19T13:52:10.479Z,101456.34
2023-03-19T13:54:12.666Z,101457.97
2023-03-19T13:56:29.066Z,101462.91
2023-03-19T13:58:54.063Z,101466.44
2023-03-19T14:00:59.614Z,101463.41
2023-03-19T14:03:01.681Z,101461.56
2023-03-19T14:05:19.038Z,101461.06
2023-03-19T14:07:30.344Z,101460.75
2023-03-19T14:09:38.876Z,101460.91
2023-03-19T14:11:40.390Z,101470.84
2023-03-19T14:13:47.591Z,101464.59
2023-03-19T14:15:51.238Z,101470.72
2023-03-19T14:18:02.378Z,101455.56
2023-03-19T14:20:13.195Z,101460.50
2023-03-19T14:22:42.634Z,101464.41
2023-03-19T14:24:58.033Z,101466.59
2023-03-19T14:27:12.118Z,101467.13
2023-03-19T14:29:16.963Z,101459.09
2023-03-19T14:31:23.714Z,101467.22
2023-03-19T14:33:29.484Z,101468.66
2023-03-19T14:35:36.619Z,101463.81
2023-03-19T14:37:38.044Z,101466.34
2023-03-19T14:39:44.031Z,101462.88
2023-03-19T14:41:50.931Z,101464.47
2023-03-19T14:44:16.296Z,101462.41
2023-03-19T14:46:40.775Z,101457.03
2023-03-19T14:49:13.054Z,101455.50
2023-03-19T14:51:26.443Z,101454.75
2023-03-19T14:53:37.916Z,101455.63
2023-03-19T14:55:39.433Z,101464.50
2023-03-19T14:57:42.072Z,101461.44
2023-03-19T14:59:43.664Z,101463.56
2023-03-19T15:01:50.520Z,101457.75
2023-03-19T15:03:56.439Z,101464.91
2023-03-19T15:06:01.369Z,101462.03
2023-03-19T15:08:05.850Z,101466.16
2023-03-19T15:10:18.932Z,101469.69
2023-03-19T15:12:20.329Z,101471.69
2023-03-19T15:14:34.474Z,101476.34
2023-03-19T15:17:06.037Z,101469.88
2023-03-19T15:19:11.438Z,101481.63
2023-03-19T15:21:13.092Z,101474.69
2023-03-19T15:23:26.787Z,101481.16
2023-03-19T15:25:29.130Z,101473.28
2023-03-19T15:27:30.794Z,101486.59
2023-03-19T15:29:33.410Z,101486.59
2023-03-19T15:31:51.590Z,101485.66
2023-03-19T15:33:55.305Z,101491.78
2023-03-19T15:36:02.784Z,101490.06
2023-03-19T15:38:10.974Z,101492.19
2023-03-19T15:40:16.175Z,101488.06
2023-03-19T15:42:21.610Z,101493.09
2023-03-19T15:44:32.730Z,101487.63
2023-03-19T15:46:38.867Z,101485.09
2023-03-19T15:49:11.267Z,101489.91
2023-03-19T15:51:14.912Z,101490.38
2023-03-19T15:53:22.596Z,101482.13
2023-03-19T15:55:26.645Z,101498.88
2023-03-19T15:57:28.663Z,101493.66
2023-03-19T15:59:31.651Z,101499.25
2023-03-19T16:01:34.367Z,101499.44
2023-03-19T16:03:42.143Z,101498.63
2023-03-19T16:05:43.840Z,101503.09
2023-03-19T16:07:50.809Z,101504.44
2023-03-19T16:09:52.789Z,101497.31
2023-03-19T16:11:55.076Z,101498.88
2023-03-19T16:13:58.742Z,101504.38
2023-03-19T16:16:05.128Z,101511.75
2023-03-19T16:18:22.285Z,101503.97
2023-03-19T16:20:23.849Z,101502.41
2023-03-19T16:22:30.721Z,101513.13
2023-03-19T16:24:37.462Z,101515.00
2023-03-19T16:26:44.422Z,101514.28
2023-03-19T16:29:25.488Z,101509.13
2023-03-19T16:31:32.017Z,101514.41
2023-03-19T16:33:33.735Z,101516.44
2023-03-19T16:35:36.721Z,101527.84
2023-03-19T16:37:41.193Z,101523.63
2023-03-19T16:39:55.148Z,101524.09
2023-03-19T16:42:08.859Z,101529.78
2023-03-19T16:44:31.386Z,101541.88
2023-03-19T16:46:33.189Z,101531.84
2023-03-19T16:48:34.726Z,101544.69
2023-03-19T16:50:38.787Z,101539.78
2023-03-19T16:52:41.290Z,101533.47
2023-03-19T16:54:43.743Z,101537.66
2023-03-19T16:56:45.320Z,101539.78
2023-03-19T16:58:48.197Z,101537.47
2023-03-19T17:00:49.716Z,101544.03
2023-03-19T17:02:52.722Z,101549.59
2023-03-19T17:04:54.267Z,101551.69
2023-03-19T17:06:56.046Z,101554.63
2023-03-19T17:08:57.539Z,101551.31
2023-03-19T17:10:59.022Z,101549.88
2023-03-19T17:13:00.873Z,101553.59
2023-03-19T17:15:02.421Z,101555.28
2023-03-19T17:17:03.891Z,101551.03
2023-03-19T17:19:16.110Z,101556.44
2023-03-19T17:21:23.095Z,101557.31
2023-03-19T17:23:27.008Z,101558.31
2023-03-19T17:25:28.712Z,101562.03
2023-03-19T17:27:32.452Z,101565.75
2023-03-19T17:29:35.733Z,101570.25
2023-03-19T17:31:37.330Z,101564.84
2023-03-19T17:33:38.820Z,101567.59
2023-03-19T17:35:40.420Z,101567.66
2023-03-19T17:37:42.209Z,101566.91
2023-03-19T17:39:45.704Z,101571.59
2023-03-19T17:41:47.188Z,101566.50
2023-03-19T17:43:48.726Z,101575.53
2023-03-19T17:45:50.574Z,101566.06
2023-03-19T17:47:56.285Z,101568.03
2023-03-19T17:49:57.904Z,101567.47
2023-03-19T17:52:00.397Z,101572.97
2023-03-19T17:54:01.920Z,101575.84
2023-03-19T17:56:03.890Z,101580.50
2023-03-19T17:58:06.812Z,101578.06
2023-03-19T18:00:09.863Z,101576.53
2023-03-19T18:02:32.177Z,101582.03
2023-03-19T18:04:33.745Z,101591.97
2023-03-19T18:06:40.045Z,101597.47
2023-03-19T18:08:41.564Z,101597.66
2023-03-19T18:10:43.602Z,101596.09
2023-03-19T18:12:45.276Z,101603.38
2023-03-19T18:14:46.761Z,101606.16
2023-03-19T18:16:48.488Z,101612.47
2023-03-19T18:18:51.543Z,101605.59
2023-03-19T18:20:53.154Z,101615.41
2023-03-19T18:22:54.713Z,101612.09
2023-03-19T18:24:57.136Z,101615.78
2023-03-19T18:26:58.580Z,101623.88
2023-03-19T18:29:00.059Z,101623.16
2023-03-19T18:31:01.742Z,101628.53
2023-03-19T18:33:06.771Z,101626.91
2023-03-19T18:35:17.985Z,101630.56
2023-03-19T18:37:19.849Z,101631.59
2023-03-19T18:39:21.385Z,101640.53
2023-03-19T18:41:25.340Z,101636.28
2023-03-19T18:43:26.889Z,101636.44
2023-03-19T18:45:30.662Z,101640.06
2023-03-19T18:47:32.317Z,101633.97
2023-03-19T18:49:33.797Z,101636.72
2023-03-19T18:51:35.424Z,101637.69
2023-03-19T18:53:37.043Z,101639.56
2023-03-19T18:55:38.610Z,101641.41
2023-03-19T18:57:52.559Z,101639.72
2023-03-19T18:59:54.903Z,101644.25
2023-03-19T19:02:17.156Z,101646.97
2023-03-19T19:04:18.717Z,101641.84
2023-03-19T19:06:36.591Z,101648.09
2023-03-19T19:08:47.549Z,101649.06
2023-03-19T19:10:53.329Z,101652.69
2023-03-19T19:12:56.199Z,101650.13
2023-03-19T19:15:05.105Z,101656.34
2023-03-19T19:17:10.080Z,101662.59
2023-03-19T19:19:17.615Z,101659.09
2023-03-19T19:21:19.433Z,101667.06
2023-03-19T19:23:22.148Z,101668.91
2023-03-19T19:25:28.789Z,101673.38
2023-03-19T19:27:30.976Z,101677.91
2023-03-19T19:29:32.548Z,101689.41
2023-03-19T19:31:35.823Z,101692.09
2023-03-19T19:33:37.495Z,101690.44
2023-03-19T19:35:38.959Z,101693.25
2023-03-19T19:37:40.639Z,101699.44
2023-03-19T19:39:42.230Z,101702.97
2023-03-19T19:41:43.873Z,101695.94
2023-03-19T19:43:47.397Z,101707.38
2023-03-19T19:45:51.433Z,101710.91
2023-03-19T19:47:53.005Z,101716.34
2023-03-19T19:49:54.472Z,101722.63
2023-03-19T19:51:56.147Z,101722.69
2023-03-19T19:53:57.612Z,101722.66
2023-03-19T19:55:59.163Z,101720.94
2023-03-19T19:58:01.661Z,101739.38
2023-03-19T20:00:04.210Z,101735.88
2023-03-19T20:02:21.600Z,101741.13
2023-03-19T20:04:23.143Z,101745.59
2023-03-19T20:06:24.688Z,101752.63
2023-03-19T20:08:27.124Z,101755.31
2023-03-19T20:10:30.709Z,101748.31
2023-03-19T20:12:33.311Z,101744.88
2023-03-19T20:14:34.798Z,101758.06
2023-03-19T20:16:36.270Z,101747.56
2023-03-19T20:18:43.323Z,101751.09
2023-03-19T20:20:45.075Z,101756.41
2023-03-19T20:22:47.591Z,101750.28
2023-03-19T20:24:51.253Z,101759.97
2023-03-19T20:26:53.160Z,101764.38
2023-03-19T20:28:54.652Z,101774.00
2023-03-19T20:30:56.441Z,101778.41
2023-03-19T20:32:59.674Z,101773.16
2023-03-19T20:35:01.478Z,101789.84
2023-03-19T20:37:02.934Z,101790.75
2023-03-19T20:39:04.612Z,101797.78
2023-03-19T20:41:14.853Z,101802.19
2023-03-19T20:43:29.823Z,101795.16
2023-03-19T20:45:37.672Z,101804.81
2023-03-19T20:47:39.130Z,101806.63
2023-03-19T20:49:40.612Z,101802.25
2023-03-19T20:51:42.072Z,101812.78
2023-03-19T20:53:43.525Z,101804.88
2023-03-19T20:55:46.993Z,101810.13
2023-03-19T20:57:51.181Z,101814.53
2023-03-19T20:59:52.759Z,101814.53
2023-03-19T21:01:56.403Z,101821.56
2023-03-19T21:03:57.914Z,101818.03
2023-03-19T21:06:02.705Z,101815.41
2023-03-19T21:08:06.118Z,101823.28
2023-03-19T21:10:21.118Z,101819.78
2023-03-19T21:12:33.345Z,101825.03
2023-03-19T21:14:34.830Z,101818.03
2023-03-19T21:16:36.536Z,101809.25
2023-03-19T21:18:38.061Z,101820.63
2023-03-19T21:20:42.525Z,101821.50
2023-03-19T21:22:46.359Z,101818.88
2023-03-19T21:24:48.964Z,101818.00
2023-03-19T21:26:50.534Z,101820.63
2023-03-19T21:28:55.052Z,101817.97
2023-03-19T21:30:57.766Z,101815.34
2023-03-19T21:32:59.584Z,101820.59
2023-03-19T21:35:01.508Z,101817.09
2023-03-19T21:37:03.196Z,101814.44
2023-03-19T21:39:04.668Z,101804.78
2023-03-19T21:41:24.755Z,101796.84
2023-03-19T21:43:57.334Z,101797.72
2023-03-19T21:45:58.962Z,101793.31
2023-03-19T21:48:09.489Z,101793.28
2023-03-19T21:50:17.381Z,101796.78
2023-03-19T21:52:21.601Z,101799.41
2023-03-19T21:54:23.869Z,101794.13
2023-03-19T21:56:34.897Z,101798.47
2023-03-19T21:58:36.689Z,101806.38
2023-03-19T22:00:38.480Z,101794.06
2023-03-19T22:02:42.682Z,101797.56
2023-03-19T22:04:44.469Z,101789.66
2023-03-19T22:06:46.781Z,101805.44
2023-03-19T22:08:48.813Z,101797.56
2023-03-19T22:10:58.521Z,101804.56
2023-03-19T22:13:00.248Z,101807.19
2023-03-19T22:15:02.583Z,101802.78
2023-03-19T22:17:05.703Z,101803.66
2023-03-19T22:19:07.158Z,101809.81
2023-03-19T22:21:13.966Z,101805.41
2023-03-19T22:23:16.032Z,101806.28
2023-03-19T22:25:18.875Z,101812.41
2023-03-19T22:27:20.360Z,101815.94
2023-03-19T22:29:25.371Z,101808.94
2023-03-19T22:31:27.244Z,101813.31
2023-03-19T22:33:28.939Z,101814.19
2023-03-19T22:35:30.471Z,101809.78
2023-03-19T22:37:32.172Z,101808.91
2023-03-19T22:39:33.625Z,101812.41
2023-03-19T22:41:37.453Z,101814.16
2023-03-19T22:43:38.960Z,101809.78
2023-03-19T22:45:40.522Z,101823.84
2023-03-19T22:47:42.117Z,101815.91
2023-03-19T22:49:44.946Z,101809.78
2023-03-19T22:51:47.297Z,101812.41
2023-03-19T22:53:48.866Z,101820.28
2023-03-19T22:55:50.560Z,101807.09
2023-03-19T22:57:52.047Z,101802.72
2023-03-19T22:59:53.496Z,101802.72
2023-03-19T23:01:55.788Z,101802.69
2023-03-19T23:03:57.600Z,101800.91
2023-03-19T23:06:05.411Z,101798.28
2023-03-19T23:08:06.870Z,101800.03
2023-03-19T23:10:29.147Z,101797.41
2023-03-19T23:12:30.856Z,101794.78
2023-03-19T23:14:32.380Z,101793.88
2023-03-19T23:16:33.985Z,101793.88
2023-03-19T23:18:37.056Z,101798.28
2023-03-19T23:20:38.528Z,101804.41
2023-03-19T23:22:40.359Z,101809.69
2023-03-19T23:24:42.292Z,101802.63
2023-03-19T23:26:45.877Z,101807.88
2023-03-19T23:28:47.407Z,101808.75
2023-03-19T23:30:51.326Z,101799.94
2023-03-19T23:32:53.217Z,101809.59
2023-03-19T23:35:00.595Z,101808.69
2023-03-19T23:37:02.826Z,101809.53
2023-03-19T23:39:05.068Z,101816.56
2023-03-19T23:41:17.807Z,101824.44
2023-03-19T23:43:22.685Z,101817.38
2023-03-19T23:45:39.941Z,101828.78
2023-03-19T23:47:41.776Z,101824.41
2023-03-19T23:49:43.293Z,101823.53
2023-03-19T23:51:44.752Z,101820.88